Time;durP1;ratioP1;P1;durP2;ratioP2;P2;SDS_P1;SDS_P2;PMS_P1;PMS_P2;Temp;Humidity;BMP_temperature;BMP_pressure;BME280_temperature;BME280_humidity;BME280_pressure;Samples;Min_cycle;Max_cycle;Signal;HPM_P1;HPM_P2
2022/12/30 00:01:06;;;;;;;13.02;2.63;;;;;;;7.54;100.00;100920.66;5131251;29;20095;-77
2022/12/30 00:03:37;;;;;;;13.73;2.80;;;;;;;7.43;100.00;100927.56;5128831;29;20033;-77
2022/12/30 00:06:16;;;;;;;9.25;2.25;;;;;;;7.51;100.00;100928.69;5127901;29;20034;-77
2022/12/30 00:08:50;;;;;;;8.07;2.45;;;;;;;7.41;100.00;100917.22;5111630;29;20035;-77
2022/12/30 00:11:30;;;;;;;9.25;2.58;;;;;;;7.47;100.00;100934.22;5128603;29;20208;-77
2022/12/30 00:34:31;;;;;;;9.85;3.00;;;;;;;7.39;100.00;100949.56;5129502;29;20032;-77
2022/12/30 00:37:03;;;;;;;11.45;3.17;;;;;;;7.29;100.00;100949.38;5128755;29;20042;-77
2022/12/30 00:39:35;;;;;;;13.18;3.20;;;;;;;7.24;100.00;100944.47;5130850;29;20036;-77
2022/12/30 00:44:56;;;;;;;9.95;2.92;;;;;;;7.25;100.00;100950.50;5130303;29;20027;-77
2022/12/30 00:47:27;;;;;;;14.20;3.60;;;;;;;7.24;100.00;100952.28;5124275;29;20025;-76
2022/12/30 00:58:28;;;;;;;14.90;3.40;;;;;;;7.21;100.00;100946.47;5125905;29;20055;-77
2022/12/30 01:00:59;;;;;;;14.52;3.60;;;;;;;7.21;100.00;100956.88;5125166;29;20394;-77
2022/12/30 01:03:31;;;;;;;11.75;3.85;;;;;;;7.11;100.00;100942.81;5124282;29;20118;-76
2022/12/30 01:06:09;;;;;;;15.02;3.13;;;;;;;7.24;100.00;100956.69;5125343;29;20040;-77
2022/12/30 01:08:41;;;;;;;13.48;3.00;;;;;;;7.03;100.00;100944.16;5125613;29;20035;-76
2022/12/30 01:11:12;;;;;;;14.75;3.72;;;;;;;7.08;100.00;100956.88;5126027;29;20051;-76
2022/12/30 01:13:44;;;;;;;13.80;3.10;;;;;;;7.06;100.00;100961.38;5109545;29;20039;-76
2022/12/30 01:16:16;;;;;;;18.58;3.92;;;;;;;7.04;100.00;100966.66;5127020;29;20441;-76
2022/12/30 01:18:48;;;;;;;15.38;3.10;;;;;;;7.04;100.00;100958.03;5125519;28;20035;-76
2022/12/30 01:21:19;;;;;;;13.27;2.72;;;;;;;7.03;100.00;100962.41;5124172;29;20055;-77
2022/12/30 01:23:51;;;;;;;12.98;3.00;;;;;;;7.03;100.00;100961.56;5122411;29;20115;-77
2022/12/30 01:26:22;;;;;;;11.65;2.85;;;;;;;6.90;100.00;100951.16;5128598;29;20381;-76
2022/12/30 01:28:53;;;;;;;17.35;3.20;;;;;;;6.88;100.00;100950.41;5128325;29;20099;-76
2022/12/30 01:31:24;;;;;;;12.93;3.60;;;;;;;6.92;100.00;100964.06;5123620;29;20038;-77
2022/12/30 01:33:56;;;;;;;13.25;3.03;;;;;;;6.94;100.00;100965.63;5124467;29;20036;-76
2022/12/30 01:36:27;;;;;;;11.65;3.42;;;;;;;6.82;100.00;100948.25;5127016;29;20029;-76
2022/12/30 01:38:58;;;;;;;14.40;3.33;;;;;;;6.93;100.00;100973.53;5122564;29;20036;-77
2022/12/30 01:41:29;;;;;;;18.58;3.33;;;;;;;6.91;100.00;100976.25;5123169;29;20035;-77
2022/12/30 01:44:01;;;;;;;13.05;3.30;;;;;;;6.93;100.00;100986.56;5108585;29;20031;-76
2022/12/30 01:46:34;;;;;;;17.42;3.45;;;;;;;6.91;100.00;100984.06;5126558;29;20264;-76
2022/12/30 01:49:07;;;;;;;15.98;3.30;;;;;;;6.91;100.00;100984.06;5127488;29;20043;-76
2022/12/30 01:51:38;;;;;;;14.77;3.38;;;;;;;6.88;100.00;100989.47;5126070;29;20027;-76
2022/12/30 01:54:09;;;;;;;12.73;2.67;;;;;;;6.71;100.00;100974.16;5127787;29;20038;-76
2022/12/30 01:56:41;;;;;;;14.60;3.33;;;;;;;6.76;100.00;100988.53;5127089;29;20119;-76
2022/12/30 01:59:18;;;;;;;16.58;3.22;;;;;;;6.92;100.00;101000.53;5108999;29;20027;-76
2022/12/30 02:01:49;;;;;;;14.43;2.90;;;;;;;6.81;100.00;100996.03;5124162;29;20038;-76
2022/12/30 02:04:24;;;;;;;10.40;2.90;;;;;;;6.80;100.00;101003.00;5123223;29;20035;-76
2022/12/30 02:06:58;;;;;;;13.50;3.50;;;;;;;6.90;100.00;101005.84;5126491;29;20046;-76
2022/12/30 02:09:31;;;;;;;10.68;2.83;;;;;;;6.80;100.00;100991.78;5128890;29;20118;-76
2022/12/30 02:12:05;;;;;;;10.10;2.95;;;;;;;6.75;100.00;100984.28;5124406;29;20115;-76
2022/12/30 02:14:37;;;;;;;;;;;;;;;7.36;100.00;101001.91;5126545;28;20041;-76
2022/12/30 02:17:35;;;;;;;14.73;3.25;;;;;;;6.91;100.00;100989.28;5125492;29;19957;-76
2022/12/30 02:20:45;;;;;;;12.73;3.17;;;;;;;7.07;100.00;100974.28;5125556;29;20046;-76
2022/12/30 02:23:35;;;;;;;13.50;2.97;;;;;;;7.10;100.00;100985.44;5126595;29;20426;-76
2022/12/30 02:26:15;;;;;;;17.98;3.53;;;;;;;6.97;100.00;100978.47;5123714;29;20039;-76
2022/12/30 02:28:47;;;;;;;13.93;3.05;;;;;;;6.89;100.00;100978.13;5128435;29;20481;-76
2022/12/30 02:31:36;;;;;;;12.63;3.40;;;;;;;7.10;100.00;100964.59;5107523;29;20130;-76
2022/12/30 02:34:18;;;;;;;15.75;3.13;;;;;;;6.95;100.00;100962.09;5126447;29;20331;-76
2022/12/30 02:37:01;;;;;;;11.95;3.03;;;;;;;6.83;100.00;100961.16;5128891;29;20043;-76
2022/12/30 02:40:16;;;;;;;13.57;2.75;;;;;;;7.07;100.00;100958.66;5123300;29;20042;-76
2022/12/30 02:45:51;;;;;;;9.85;2.95;;;;;;;6.72;100.00;100939.38;5123784;29;20513;-76
2022/12/30 02:48:27;;;;;;;12.45;2.75;;;;;;;6.77;100.00;100945.94;5129823;29;20043;-76
2022/12/30 02:53:51;;;;;;;11.70;3.65;;;;;;;6.72;100.00;100941.97;5126878;29;20031;-76
2022/12/30 02:56:22;;;;;;;10.93;2.70;;;;;;;6.64;100.00;100926.88;5128037;29;20028;-76
2022/12/30 03:05:15;;;;;;;15.05;3.90;;;;;;;6.79;100.00;100922.41;5127358;29;20485;-76
2022/12/30 03:08:14;;;;;;;12.98;2.72;;;;;;;6.62;100.00;100920.91;5130870;29;20035;-76
2022/12/30 03:11:13;;;;;;;14.20;2.92;;;;;;;6.52;100.00;100928.53;5128637;29;20032;-76
2022/12/30 03:13:56;;;;;;;13.52;3.38;;;;;;;6.57;100.00;100921.22;5131579;29;20063;-76
2022/12/30 03:16:39;;;;;;;15.77;2.67;;;;;;;6.60;100.00;100937.59;5131031;29;20094;-76
2022/12/30 03:19:14;;;;;;;15.93;3.20;;;;;;;6.48;100.00;100932.28;5131011;29;20391;-76
2022/12/30 03:21:49;;;;;;;12.15;3.40;;;;;;;6.43;100.00;100928.28;5127930;29;20118;-76
2022/12/30 03:27:20;;;;;;;12.27;2.80;;;;;;;6.18;100.00;100913.47;5130964;29;20433;-76
2022/12/30 03:30:00;;;;;;;16.90;3.65;;;;;;;6.31;100.00;100919.53;5126398;29;20028;-76
2022/12/30 03:32:32;;;;;;;12.65;2.85;;;;;;;6.19;100.00;100920.34;5127132;29;20512;-76
2022/12/30 03:35:05;;;;;;;12.85;3.08;;;;;;;6.10;100.00;100906.16;5111982;29;20031;-76
2022/12/30 03:37:45;;;;;;;10.98;2.60;;;;;;;6.28;100.00;100909.31;5127923;29;20089;-76
2022/12/30 03:40:28;;;;;;;11.20;2.67;;;;;;;6.25;100.00;100902.56;5126293;29;20516;-76
2022/12/30 03:43:02;;;;;;;16.90;3.15;;;;;;;6.16;100.00;100904.91;5125152;29;20036;-76
2022/12/30 03:45:33;;;;;;;13.32;2.60;;;;;;;6.16;100.00;100907.53;5127546;29;20134;-76
2022/12/30 03:48:04;;;;;;;13.52;2.90;;;;;;;6.24;100.00;100907.84;5129690;29;20139;-76
2022/12/30 03:50:36;;;;;;;15.23;3.35;;;;;;;6.23;100.00;100912.22;5128789;29;20028;-76
2022/12/30 03:53:07;;;;;;;8.98;2.40;;;;;;;6.22;100.00;100920.97;5129035;29;20502;-76
2022/12/30 03:55:38;;;;;;;9.95;2.88;;;;;;;6.10;100.00;100916.56;5125477;29;20430;-76
2022/12/30 03:58:10;;;;;;;10.45;2.92;;;;;;;6.06;100.00;100915.06;5129596;29;20103;-76
2022/12/30 04:00:41;;;;;;;11.40;3.53;;;;;;;5.97;100.00;100910.47;5125859;29;20040;-76
2022/12/30 04:03:12;;;;;;;14.07;3.45;;;;;;;5.91;100.00;100908.22;5125318;28;20066;-76
2022/12/30 04:05:43;;;;;;;16.27;3.95;;;;;;;5.92;100.00;100923.78;5129678;29;20043;-76
2022/12/30 04:08:15;;;;;;;12.52;3.05;;;;;;;5.93;100.00;100925.44;5122051;29;20498;-76
2022/12/30 04:10:46;;;;;;;12.75;2.90;;;;;;;5.84;100.00;100931.22;5130059;29;20028;-76
2022/12/30 04:13:17;;;;;;;18.33;3.33;;;;;;;5.85;100.00;100923.31;5126450;29;20039;-76
2022/12/30 04:15:51;;;;;;;14.00;3.17;;;;;;;5.84;100.00;100929.44;5112732;29;20031;-76
2022/12/30 04:18:22;;;;;;;12.60;2.90;;;;;;;5.81;100.00;100936.59;5128639;29;20098;-76
2022/12/30 04:20:54;;;;;;;13.55;3.83;;;;;;;5.78;100.00;100944.59;5130596;29;20044;-76
2022/12/30 04:23:25;;;;;;;16.40;3.38;;;;;;;5.75;100.00;100945.59;5129925;29;20034;-76
2022/12/30 04:25:56;;;;;;;13.98;3.20;;;;;;;5.75;100.00;100945.59;5113913;29;20501;-76
2022/12/30 04:28:28;;;;;;;12.55;3.30;;;;;;;5.75;100.00;100939.56;5131456;28;20512;-76
2022/12/30 04:30:59;;;;;;;12.30;3.10;;;;;;;5.73;100.00;100934.47;5129419;29;20030;-76
2022/12/30 04:33:31;;;;;;;13.25;2.80;;;;;;;5.65;100.00;100926.34;5131474;29;20031;-76
2022/12/30 04:36:02;;;;;;;17.73;3.15;;;;;;;5.67;100.00;100914.06;5130756;29;20150;-76
2022/12/30 04:38:34;;;;;;;12.57;3.47;;;;;;;5.72;100.00;100921.56;5130162;29;20040;-76
2022/12/30 04:41:06;;;;;;;12.52;3.13;;;;;;;5.70;100.00;100921.69;5112567;29;20063;-76
2022/12/30 04:43:37;;;;;;;17.80;3.92;;;;;;;5.69;100.00;100925.22;5133176;29;20066;-76
2022/12/30 04:46:09;;;;;;;11.38;2.58;;;;;;;5.69;100.00;100919.19;5131185;29;20035;-76
2022/12/30 04:48:40;;;;;;;8.95;2.53;;;;;;;5.71;100.00;100919.91;5113690;29;20027;-77
2022/12/30 04:51:11;;;;;;;12.73;2.80;;;;;;;5.66;100.00;100916.78;5128394;29;20151;-77
2022/12/30 04:53:42;;;;;;;11.18;3.20;;;;;;;5.69;100.00;100917.41;5128908;29;20036;-77
2022/12/30 04:56:14;;;;;;;16.23;3.72;;;;;;;5.70;100.00;100932.06;5130174;28;20027;-77
2022/12/30 04:58:45;;;;;;;15.93;3.08;;;;;;;5.69;100.00;100916.59;5113412;29;20040;-77
2022/12/30 05:01:16;;;;;;;11.27;3.22;;;;;;;5.64;100.00;100909.06;5127102;29;20027;-77
2022/12/30 05:03:47;;;;;;;16.15;4.00;;;;;;;5.70;100.00;100918.25;5124666;29;20040;-77
2022/12/30 05:06:19;;;;;;;12.25;3.00;;;;;;;5.64;100.00;100903.84;5128012;29;20038;-77
2022/12/30 05:08:50;;;;;;;14.43;3.88;;;;;;;5.59;100.00;100890.34;5128369;29;20036;-77
2022/12/30 05:11:21;;;;;;;14.43;3.42;;;;;;;5.69;100.00;100911.38;5127676;29;20043;-77
2022/12/30 05:13:52;;;;;;;17.50;4.45;;;;;;;5.58;100.00;100899.06;5129512;29;20114;-77
2022/12/30 05:16:24;;;;;;;13.73;2.80;;;;;;;5.66;100.00;100902.00;5128468;29;20023;-77
2022/12/30 05:18:55;;;;;;;10.65;3.13;;;;;;;5.60;100.00;100892.00;5128982;29;20058;-78
2022/12/30 05:21:26;;;;;;;14.50;3.30;;;;;;;5.67;100.00;100903.66;5127454;29;20028;-78
2022/12/30 05:26:47;;;;;;;9.52;3.15;;;;;;;5.66;100.00;100896.81;5127879;29;20074;-78
2022/12/30 05:29:19;;;;;;;19.70;4.00;;;;;;;5.61;100.00;100889.31;5126414;29;20051;-77
2022/12/30 05:31:50;;;;;;;14.55;3.20;;;;;;;5.52;100.00;100883.84;5127744;29;20026;-77
2022/12/30 05:34:22;;;;;;;11.65;3.00;;;;;;;5.59;100.00;100896.34;5111586;29;20036;-78
2022/12/30 05:36:53;;;;;;;14.13;3.33;;;;;;;5.58;100.00;100902.50;5126893;29;20413;-77
2022/12/30 05:39:24;;;;;;;15.30;3.42;;;;;;;5.55;100.00;100902.69;5125172;29;20039;-77
2022/12/30 05:41:56;;;;;;;13.20;3.20;;;;;;;5.58;100.00;100905.09;5122804;29;20373;-77
2022/12/30 05:44:27;;;;;;;15.20;3.83;;;;;;;5.58;100.00;100899.06;5126083;29;20020;-79
2022/12/30 05:46:58;;;;;;;10.07;3.17;;;;;;;5.71;100.00;100896.50;5125030;29;20035;-77
2022/12/30 05:49:30;;;;;;;14.45;3.05;;;;;;;5.65;100.00;100899.53;5109333;29;20050;-78
2022/12/30 05:52:01;;;;;;;12.30;3.42;;;;;;;5.66;100.00;100898.59;5129419;29;20053;-77
2022/12/30 05:54:32;;;;;;;13.63;3.65;;;;;;;5.59;100.00;100888.56;5125696;29;20039;-77
2022/12/30 05:57:03;;;;;;;15.95;3.95;;;;;;;5.73;100.00;100898.09;5127833;29;20027;-77
2022/12/30 05:59:35;;;;;;;14.25;4.05;;;;;;;5.64;100.00;100885.66;5127806;29;20031;-77
2022/12/30 06:02:06;;;;;;;13.02;4.43;;;;;;;5.77;100.00;100894.38;5121635;29;20042;-77
2022/12/30 06:04:38;;;;;;;14.63;3.95;;;;;;;5.78;100.00;100901.22;5126449;29;20059;-77
2022/12/30 06:07:09;;;;;;;15.93;4.68;;;;;;;5.79;100.00;100895.09;5128602;29;20050;-78
2022/12/30 06:09:40;;;;;;;14.98;3.95;;;;;;;5.74;100.00;100889.34;5111110;29;20063;-77
2022/12/30 06:12:11;;;;;;;11.18;2.75;;;;;;;5.78;100.00;100884.78;5125972;29;20027;-79
2022/12/30 06:14:43;;;;;;;12.00;2.65;;;;;;;5.78;100.00;100874.41;5125067;29;20420;-77
2022/12/30 06:17:14;;;;;;;11.00;3.50;;;;;;;5.84;100.00;100880.03;5127591;29;20038;-79
2022/12/30 06:19:45;;;;;;;14.48;3.70;;;;;;;5.86;100.00;100875.56;5123536;29;20569;-76
2022/12/30 06:22:17;;;;;;;11.65;3.03;;;;;;;5.88;100.00;100872.88;5108992;29;20111;-77
2022/12/30 06:24:48;;;;;;;13.30;3.70;;;;;;;5.82;100.00;100862.88;5125896;29;20031;-77
2022/12/30 06:27:19;;;;;;;12.38;3.40;;;;;;;5.91;100.00;100861.44;5124238;29;20058;-76
2022/12/30 06:29:51;;;;;;;13.20;3.78;;;;;;;5.95;100.00;100860.34;5124757;29;20027;-77
2022/12/30 06:32:22;;;;;;;11.20;2.42;;;;;;;5.96;100.00;100868.03;5127570;29;20086;-78
2022/12/30 06:34:54;;;;;;;12.23;3.45;;;;;;;5.96;100.00;100867.22;5127153;29;20486;-77
2022/12/30 06:37:25;;;;;;;11.05;3.28;;;;;;;5.99;100.00;100865.25;5124236;29;20114;-76
2022/12/30 06:39:56;;;;;;;10.95;3.50;;;;;;;6.02;100.00;100864.19;5126628;29;20098;-76
2022/12/30 06:42:27;;;;;;;12.82;2.95;;;;;;;6.03;100.00;100845.91;5129355;29;20024;-78
2022/12/30 06:44:59;;;;;;;13.23;3.30;;;;;;;5.94;100.00;100841.28;5126944;28;20548;-77
2022/12/30 06:47:31;;;;;;;16.02;3.72;;;;;;;6.04;100.00;100839.75;5127804;29;20032;-77
2022/12/30 06:50:02;;;;;;;10.48;2.60;;;;;;;6.03;100.00;100842.47;5127637;29;20036;-77
2022/12/30 06:52:34;;;;;;;11.38;3.22;;;;;;;6.06;100.00;100831.84;5128591;29;20520;-77
2022/12/30 06:55:06;;;;;;;15.98;3.45;;;;;;;6.07;100.00;100830.94;5128317;29;20041;-77
2022/12/30 06:57:37;;;;;;;8.50;2.95;;;;;;;5.95;100.00;100801.38;5128579;29;20109;-79
2022/12/30 07:00:09;;;;;;;9.98;2.67;;;;;;;6.00;100.00;100809.69;5123575;29;20049;-77
2022/12/30 07:02:41;;;;;;;11.45;3.65;;;;;;;6.02;100.00;100809.59;5129394;29;20028;-79
2022/12/30 07:05:12;;;;;;;11.50;3.42;;;;;;;5.99;100.00;100804.59;5124190;29;20524;-77
2022/12/30 07:07:43;;;;;;;12.20;2.75;;;;;;;6.01;100.00;100803.56;5127060;29;20031;-79
2022/12/30 07:10:15;;;;;;;10.27;3.22;;;;;;;6.02;100.00;100792.25;5125987;29;20031;-77
2022/12/30 07:12:46;;;;;;;11.43;3.28;;;;;;;6.07;100.00;100784.13;5123511;29;20019;-78
2022/12/30 07:15:17;;;;;;;7.65;3.33;;;;;;;6.07;100.00;100773.72;5125200;29;21306;-77
2022/12/30 07:17:49;;;;;;;10.60;3.20;;;;;;;6.02;100.00;100773.19;5126432;29;20038;-77
2022/12/30 07:20:20;;;;;;;9.23;2.58;;;;;;;6.10;100.00;100778.72;5108005;29;20036;-77
2022/12/30 07:22:52;;;;;;;14.98;2.65;;;;;;;6.07;100.00;100776.31;5127609;29;20029;-77
2022/12/30 07:25:23;;;;;;;10.35;2.38;;;;;;;6.14;100.00;100781.91;5128260;29;20032;-77
2022/12/30 07:27:59;;;;;;;11.27;2.95;;;;;;;6.20;100.00;100766.75;5123312;29;20549;-78
2022/12/30 07:30:31;;;;;;;12.38;2.83;;;;;;;6.17;100.00;100760.91;5125503;29;20031;-76
2022/12/30 07:33:03;;;;;;;10.53;3.10;;;;;;;6.34;100.00;100773.63;5127134;29;20020;-77
2022/12/30 07:35:34;;;;;;;7.18;2.35;;;;;;;6.30;100.00;100759.16;5124030;29;20039;-79
2022/12/30 07:38:05;;;;;;;7.78;2.53;;;;;;;6.27;100.00;100751.56;5126117;29;21097;-78
2022/12/30 07:40:37;;;;;;;10.23;2.78;;;;;;;6.29;100.00;100744.50;5127215;29;20082;-76
2022/12/30 07:43:09;;;;;;;10.70;2.95;;;;;;;6.34;100.00;100752.81;5122913;29;20063;-77
2022/12/30 07:45:40;;;;;;;10.15;3.00;;;;;;;6.36;100.00;100743.09;5125169;29;20433;-77
2022/12/30 07:48:11;;;;;;;8.18;2.20;;;;;;;6.40;100.00;100736.75;5127126;29;20442;-78
2022/12/30 07:50:42;;;;;;;8.57;2.40;;;;;;;6.44;100.00;100724.38;5130587;29;20035;-76
2022/12/30 07:53:14;;;;;;;10.45;2.17;;;;;;;6.40;100.00;100715.94;5127266;29;20028;-77
2022/12/30 07:55:45;;;;;;;10.50;2.63;;;;;;;6.54;100.00;100723.63;5127015;29;20074;-76
2022/12/30 07:58:16;;;;;;;8.50;2.60;;;;;;;6.59;100.00;100712.88;5128663;29;20024;-77
2022/12/30 08:00:47;;;;;;;10.95;2.50;;;;;;;6.64;100.00;100705.59;5127019;29;20043;-77
2022/12/30 08:03:19;;;;;;;9.00;2.55;;;;;;;6.69;100.00;100710.47;5118918;29;20075;-78
2022/12/30 08:05:50;;;;;;;8.52;1.92;;;;;;;6.74;100.00;100700.56;5126343;29;20027;-77
2022/12/30 08:08:21;;;;;;;10.70;2.63;;;;;;;6.78;100.00;100695.03;5127583;28;20063;-76
2022/12/30 08:10:55;;;;;;;5.47;1.77;;;;;;;6.78;100.00;100688.97;5129281;29;20532;-77
2022/12/30 08:13:26;;;;;;;10.82;2.92;;;;;;;6.87;100.00;100696.16;5125173;29;20023;-77
2022/12/30 08:15:57;;;;;;;10.05;2.47;;;;;;;6.92;100.00;100691.44;5125912;29;20035;-79
2022/12/30 08:18:29;;;;;;;7.88;2.15;;;;;;;6.94;100.00;100689.56;5121854;29;20035;-77
2022/12/30 08:21:06;;;;;;;6.70;1.92;;;;;;;7.00;100.00;100673.47;5121451;29;20436;-78
2022/12/30 08:23:38;;;;;;;6.97;1.98;;;;;;;7.00;100.00;100670.88;5125613;29;20028;-77
2022/12/30 08:26:15;;;;;;;7.90;2.40;;;;;;;7.12;100.00;100686.56;5126277;29;20070;-78
2022/12/30 08:28:46;;;;;;;6.00;2.10;;;;;;;6.93;100.00;100680.09;5128004;29;20490;-77
2022/12/30 08:31:21;;;;;;;8.95;2.83;;;;;;;7.00;100.00;100681.28;5126262;29;20150;-77
2022/12/30 08:33:53;;;;;;;7.22;2.38;;;;;;;7.01;100.00;100675.16;5125504;29;20145;-78
2022/12/30 08:36:28;;;;;;;8.57;2.42;;;;;;;7.04;100.00;100659.28;5128910;29;20039;-77
2022/12/30 08:39:02;;;;;;;6.22;2.00;;;;;;;7.04;100.00;100661.88;5123658;29;20031;-77
2022/12/30 08:41:36;;;;;;;8.00;2.53;;;;;;;7.11;100.00;100657.06;5127674;29;20127;-78
2022/12/30 08:44:08;;;;;;;10.38;2.47;;;;;;;7.15;100.00;100644.66;5127691;29;20059;-78
2022/12/30 08:46:41;;;;;;;10.45;2.38;;;;;;;7.12;100.00;100631.84;5110635;29;20434;-79
2022/12/30 08:49:13;;;;;;;10.73;2.63;;;;;;;7.26;100.00;100640.31;5129017;29;20031;-77
2022/12/30 08:51:44;;;;;;;7.65;2.20;;;;;;;7.30;100.00;100633.09;5124445;29;20663;-77
2022/12/30 08:54:16;;;;;;;9.77;2.53;;;;;;;7.30;100.00;100628.72;5126780;29;20524;-77
2022/12/30 08:56:48;;;;;;;7.18;1.73;;;;;;;7.37;100.00;100629.09;5126631;29;20044;-79
2022/12/30 08:59:19;;;;;;;9.93;2.33;;;;;;;7.41;100.00;100620.09;5126054;29;20429;-77
2022/12/30 09:01:50;;;;;;;9.68;2.45;;;;;;;7.37;100.00;100608.25;5126469;29;20472;-77
2022/12/30 09:04:22;;;;;;;4.40;1.60;;;;;;;7.44;100.00;100617.25;5127488;29;20031;-77
2022/12/30 09:06:53;;;;;;;7.43;1.90;;;;;;;7.47;100.00;100605.78;5129032;29;20032;-77
2022/12/30 09:09:25;;;;;;;5.45;1.98;;;;;;;7.55;100.00;100606.84;5117110;29;20032;-78
2022/12/30 09:11:56;;;;;;;4.63;1.55;;;;;;;7.53;100.00;100590.50;5121506;29;20047;-77
2022/12/30 09:14:28;;;;;;;3.97;2.03;;;;;;;7.64;100.00;100588.84;5122390;29;20489;-77
2022/12/30 09:16:59;;;;;;;5.85;1.80;;;;;;;7.64;100.00;100584.47;5126457;29;20031;-77
2022/12/30 09:19:31;;;;;;;4.63;1.83;;;;;;;7.75;100.00;100591.47;5126155;29;20093;-77
2022/12/30 09:22:02;;;;;;;6.85;2.13;;;;;;;7.77;100.00;100589.59;5125909;29;20027;-77
2022/12/30 09:24:34;;;;;;;6.10;2.03;;;;;;;7.79;100.00;100587.66;5121375;29;20481;-79
2022/12/30 09:27:05;;;;;;;5.63;1.60;;;;;;;7.87;100.00;100594.91;5128479;29;20385;-78
2022/12/30 09:29:36;;;;;;;7.18;2.13;;;;;;;7.93;100.00;100584.81;5123875;29;20028;-77
2022/12/30 09:32:08;;;;;;;5.95;1.98;;;;;;;8.00;100.00;100590.41;5125856;29;20458;-77
2022/12/30 09:34:41;;;;;;;6.55;1.98;;;;;;;8.08;100.00;100585.41;5124176;29;20127;-77
2022/12/30 09:37:13;;;;;;;5.53;1.70;;;;;;;8.02;100.00;100578.88;5108559;29;20477;-79
2022/12/30 09:39:44;;;;;;;6.63;1.42;;;;;;;8.03;100.00;100570.13;5127299;29;20569;-77
2022/12/30 09:45:22;;;;;;;3.70;1.50;;;;;;;8.31;100.00;100561.88;5123138;29;20039;-79
2022/12/30 09:47:56;;;;;;;6.18;1.48;;;;;;;8.22;100.00;100546.00;5121199;29;20039;-77
2022/12/30 09:50:42;;;;;;;5.28;1.80;;;;;;;8.39;100.00;100546.47;5127957;29;20031;-77
2022/12/30 09:53:38;;;;;;;6.32;1.63;;;;;;;8.43;100.00;100547.88;5125506;29;20043;-78
2022/12/30 09:56:28;;;;;;;6.95;1.40;;;;;;;8.48;100.00;100538.72;5127161;29;20386;-77
2022/12/30 09:59:08;;;;;;;6.22;1.52;;;;;;;8.43;100.00;100537.44;5124803;29;20180;-79
2022/12/30 10:01:47;;;;;;;8.32;1.52;;;;;;;8.49;100.00;100532.56;5121653;29;20047;-79
2022/12/30 10:04:20;;;;;;;7.15;1.45;;;;;;;8.45;100.00;100520.72;5119362;29;20031;-78
2022/12/30 10:07:06;;;;;;;6.95;1.48;;;;;;;8.57;100.00;100508.44;5124241;29;20095;-77
2022/12/30 10:09:47;;;;;;;6.57;2.15;;;;;;;8.59;100.00;100511.72;5125607;29;20381;-77
2022/12/30 10:12:41;;;;;;;6.00;1.58;;;;;;;8.73;100.00;100498.38;5122792;29;20055;-77
2022/12/30 10:15:23;;;;;;;7.65;1.92;;;;;;;8.65;100.00;100503.41;5113364;29;20374;-78
2022/12/30 10:18:29;;;;;;;4.95;1.20;;;;;;;8.76;100.00;100489.47;5117643;29;20036;-78
2022/12/30 10:21:23;;;;;;;3.83;0.98;;;;;;;8.88;100.00;100471.94;5119010;29;20094;-77
2022/12/30 10:24:10;;;;;;;7.05;1.58;;;;;;;8.83;100.00;100461.06;5122661;29;20032;-77
2022/12/30 10:26:46;;;;;;;8.23;1.40;;;;;;;8.78;100.00;100450.97;5122118;29;20111;-77
2022/12/30 10:29:29;;;;;;;9.13;1.65;;;;;;;8.87;100.00;100449.41;5119493;29;20115;-78
2022/12/30 10:32:15;;;;;;;5.15;1.73;;;;;;;8.93;100.00;100444.47;5114200;29;20123;-78
2022/12/30 10:34:52;;;;;;;7.68;1.30;;;;;;;8.81;100.00;100435.06;5116574;29;20058;-78
2022/12/30 10:37:33;;;;;;;4.68;1.40;;;;;;;8.90;100.00;100428.22;5110666;29;20052;-78
2022/12/30 10:40:09;;;;;;;6.97;2.08;;;;;;;8.96;100.00;100432.94;5122637;29;20035;-78
2022/12/30 10:43:11;;;;;;;8.55;1.83;;;;;;;9.18;100.00;100413.66;5126079;29;21192;-78
2022/12/30 10:46:04;;;;;;;8.00;1.63;;;;;;;9.16;100.00;100408.53;5124299;29;20102;-78
2022/12/30 10:48:55;;;;;;;4.68;1.48;;;;;;;9.20;100.00;100390.81;5119773;29;20540;-80
2022/12/30 10:51:27;;;;;;;6.20;1.95;;;;;;;9.01;100.00;100386.34;5107863;29;20115;-78
2022/12/30 10:54:00;;;;;;;6.15;1.58;;;;;;;8.99;100.00;100370.78;5124424;29;20039;-78
2022/12/30 10:56:34;;;;;;;4.50;1.30;;;;;;;9.15;100.00;100357.22;5123196;29;20500;-77
2022/12/30 10:59:20;;;;;;;6.90;1.75;;;;;;;9.22;100.00;100350.53;5123489;29;20110;-78
2022/12/30 11:01:58;;;;;;;5.50;1.58;;;;;;;9.17;100.00;100350.09;5116656;29;20123;-77
2022/12/30 11:04:39;;;;;;;6.60;1.67;;;;;;;9.20;100.00;100325.47;5120674;29;20047;-78
2022/12/30 11:07:14;;;;;;;8.35;1.58;;;;;;;9.23;100.00;100333.88;5106806;29;20035;-77
2022/12/30 11:09:46;;;;;;;7.18;1.92;;;;;;;9.21;100.00;100327.16;5106910;29;20042;-78
2022/12/30 11:15:11;;;;;;;4.82;1.77;;;;;;;9.27;100.00;100305.69;5124906;29;20028;-78
2022/12/30 11:17:51;;;;;;;7.85;1.75;;;;;;;9.35;100.00;100299.78;5123750;29;20025;-77
2022/12/30 11:20:39;;;;;;;7.72;1.98;;;;;;;9.48;100.00;100295.13;5121686;29;20504;-78
2022/12/30 11:23:23;;;;;;;8.57;1.65;;;;;;;9.48;100.00;100290.72;5123467;29;20043;-78
2022/12/30 11:25:55;;;;;;;5.63;1.90;;;;;;;9.38;100.00;100273.38;5129575;29;20036;-79
2022/12/30 11:28:32;;;;;;;7.60;1.67;;;;;;;9.44;100.00;100254.53;5123961;29;20069;-78
2022/12/30 11:31:07;;;;;;;7.65;2.00;;;;;;;9.39;100.00;100243.63;5107997;29;20127;-78
2022/12/30 11:33:54;;;;;;;9.05;1.80;;;;;;;9.38;100.00;100231.53;5121408;29;20493;-78
2022/12/30 11:36:28;;;;;;;6.25;1.65;;;;;;;9.43;100.00;100226.72;5118737;29;20032;-78
2022/12/30 11:39:05;;;;;;;10.65;2.05;;;;;;;9.47;100.00;100218.47;5113813;29;20074;-77
2022/12/30 11:41:51;;;;;;;9.95;2.30;;;;;;;9.54;100.00;100205.66;5126307;29;20378;-78
2022/12/30 11:44:25;;;;;;;6.53;1.75;;;;;;;9.47;100.00;100201.94;5121938;29;20141;-78
2022/12/30 11:47:04;;;;;;;4.78;1.70;;;;;;;9.55;100.00;100186.41;5121742;29;20110;-78
2022/12/30 11:49:38;;;;;;;8.57;2.08;;;;;;;9.55;100.00;100188.19;5124604;29;20035;-77
2022/12/30 11:52:15;;;;;;;5.65;1.23;;;;;;;9.62;100.00;100177.03;5122863;29;20058;-78
2022/12/30 11:54:50;;;;;;;8.20;1.75;;;;;;;9.54;100.00;100137.66;5127782;29;20024;-77
2022/12/30 11:57:28;;;;;;;9.18;2.35;;;;;;;9.75;100.00;100145.34;5123522;29;20035;-78
2022/12/30 12:00:22;;;;;;;6.20;1.75;;;;;;;9.73;100.00;100134.16;5123157;29;20032;-77
2022/12/30 12:03:01;;;;;;;7.78;1.73;;;;;;;9.84;100.00;100133.19;5122444;29;20156;-79
2022/12/30 12:05:42;;;;;;;6.95;1.85;;;;;;;9.83;100.00;100124.50;5111793;29;20051;-78
2022/12/30 12:08:19;;;;;;;6.55;1.60;;;;;;;9.89;100.00;100131.81;5124807;29;20058;-77
2022/12/30 12:10:58;;;;;;;7.07;1.88;;;;;;;9.84;100.00;100105.22;5127865;29;20032;-77
2022/12/30 12:13:57;;;;;;;5.38;2.03;;;;;;;9.98;100.00;100099.53;5127241;29;20036;-78
2022/12/30 12:16:44;;;;;;;8.48;1.55;;;;;;;9.98;100.00;100107.38;5127801;29;20032;-78
2022/12/30 12:19:25;;;;;;;8.25;1.95;;;;;;;9.99;100.00;100090.69;5122592;29;20470;-78
2022/12/30 12:22:01;;;;;;;6.80;1.30;;;;;;;9.94;100.00;100079.84;5120310;29;20095;-77
2022/12/30 12:24:39;;;;;;;8.63;1.73;;;;;;;9.96;100.00;100080.56;5121694;29;20078;-77
2022/12/30 12:27:14;;;;;;;7.25;1.65;;;;;;;9.89;100.00;100076.03;5126052;29;20517;-78
2022/12/30 12:29:46;;;;;;;8.32;1.83;;;;;;;9.83;100.00;100064.34;5128537;29;20036;-77
2022/12/30 12:32:29;;;;;;;5.70;1.40;;;;;;;9.96;100.00;100058.75;5123712;29;20023;-77
2022/12/30 12:35:03;;;;;;;7.97;1.50;;;;;;;9.78;100.00;100050.88;5125957;29;20036;-77
2022/12/30 12:37:53;;;;;;;7.05;1.50;;;;;;;9.91;100.00;100035.66;5127202;29;20031;-77
2022/12/30 12:40:46;;;;;;;8.40;1.77;;;;;;;9.90;100.00;100035.81;5129192;29;20095;-77
2022/12/30 12:43:22;;;;;;;5.40;1.20;;;;;;;9.74;100.00;100028.59;5115794;29;20032;-77
2022/12/30 12:46:16;;;;;;;6.68;1.77;;;;;;;9.85;100.00;100023.19;5124230;29;20040;-77
2022/12/30 12:49:15;;;;;;;5.03;1.30;;;;;;;9.82;100.00;100004.34;5127405;29;20437;-77
2022/12/30 12:51:55;;;;;;;5.43;1.48;;;;;;;9.70;100.00;99988.84;5123122;29;20035;-77
2022/12/30 12:54:39;;;;;;;5.82;1.40;;;;;;;9.76;100.00;99976.94;5127359;29;20035;-77